Home   Weather   Egypt   Farafra   Past weeks
Flag for Egypt

Past Weather in Farafra, Egypt — Yesterday and Last 2 Weeks

Currently: 90 °F. Clear. (Weather station: Cairo Airport, Egypt). See more current weather

Past Weather in Farafra — Graph

°F

Farafra Temperature Yesterday

Maximum temperature yesterday: 104 °F (at 3:00 pm)
Minimum temperature yesterday: 84 °F (at 4:30 am)
Average temperature yesterday: 92 °F

High & Low Weather Summary for the Past Weeks

 TemperatureHumidityPressure
High108 °F (Jun 14, 3:00 pm)89% (Jun 10, 6:30 am)29.92 "Hg (Jun 10, 6:30 am)
Low73 °F (Jun 10, 6:30 am)12% (Jun 14, 11:30 am)29.65 "Hg (Jun 22, 4:30 pm)
Average89 °F44%29.79 "Hg
* Reported Jun 10 12:00 am — Jun 25 12:00 am, Farafra. Weather by CustomWeather, © 2024

Note: Actual official high and low records may vary slightly from our data, if they occured in-between our weather recording intervals... More about our weather records

Farafra Weather History for the Previous 24 Hours

Scroll right to see more
 ConditionsComfort  
Time TempWeatherWind HumidityBarometerVisibility
12:00 am
Tue, Jun 25
90 °FClear.10 mph43%29.77 "Hg10 mi
11:30 pm
Mon, Jun 24
90 °FClear.10 mph43%29.77 "Hg10 mi
11:00 pm91 °FClear.12 mph41%29.77 "Hg10 mi
10:30 pm91 °FClear.13 mph41%29.77 "Hg10 mi
10:00 pm93 °FClear.13 mph34%29.77 "Hg10 mi
9:30 pm93 °FClear.15 mph36%29.74 "Hg10 mi
9:00 pm95 °FClear.12 mph34%29.74 "Hg10 mi
8:00 pm99 °FClear.14 mph27%29.74 "Hg10 mi
7:30 pm99 °FSunny.13 mph25%29.71 "Hg10 mi
7:00 pm99 °FSunny.14 mph25%29.71 "Hg10 mi
6:30 pm100 °FSunny.13 mph24%29.71 "Hg10 mi
6:00 pm102 °FSunny.12 mph21%29.71 "Hg10 mi
5:30 pm102 °FSunny.12 mph17%29.71 "Hg10 mi
5:00 pm102 °FThunderstorms. Passing clouds.5 mph17%29.71 "HgN/A
4:00 pm104 °FSunny.12 mph16%29.74 "Hg10 mi
3:00 pm104 °FSunny.12 mph16%29.74 "Hg10 mi
2:00 pm102 °FSunny.6 mph18%29.74 "Hg10 mi
1:30 pm102 °FSunny.5 mph18%29.74 "Hg10 mi
1:00 pm100 °FSunny.3 mph17%29.77 "Hg10 mi
12:30 pm99 °FSunny.6 mph18%29.77 "Hg10 mi
12:00 pm97 °FSunny.7 mph22%29.77 "Hg10 mi
11:30 am97 °FClear.6 mph25%29.77 "Hg4 mi
11:00 am95 °FClear.7 mph32%29.77 "Hg4 mi
10:00 am91 °FClear.3 mph44%29.77 "Hg4 mi
9:30 am88 °FClear.2 mph55%29.77 "Hg4 mi
9:00 am86 °FClear.5 mph59%29.77 "Hg4 mi
8:30 am86 °FClear.6 mph62%29.77 "Hg4 mi
8:00 am86 °FClear.3 mph66%29.74 "Hg4 mi
7:30 am86 °FSunny.3 mph66%29.74 "Hg10 mi
7:00 am84 °FSunny.3 mph62%29.74 "Hg10 mi
6:30 am86 °FSunny.2 mph62%29.74 "Hg10 mi
6:00 am84 °FSunny.2 mph62%29.71 "Hg10 mi
5:30 am84 °FClear.No wind66%29.71 "Hg10 mi
5:00 am84 °FClear.2 mph66%29.71 "Hg10 mi
4:30 am84 °FClear.2 mph66%29.71 "Hg10 mi
4:00 am86 °FClear.3 mph62%29.71 "Hg10 mi
Weather by CustomWeather, © 2024

See weather overview